sensor_id;sensor_type;location;lat;lon;timestamp;pressure;altitude;pressure_sealevel;temperature;humidity
19789;BME280;10054;59.332;18.244;2023-06-22T00:00:36;100549.28;;;19.59;100.00
19789;BME280;10054;59.332;18.244;2023-06-22T00:03:06;100545.77;;;19.58;100.00
19789;BME280;10054;59.332;18.244;2023-06-22T00:05:35;100542.09;;;19.59;100.00
19789;BME280;10054;59.332;18.244;2023-06-22T00:08:04;100542.59;;;19.59;100.00
19789;BME280;10054;59.332;18.244;2023-06-22T00:10:34;100549.78;;;19.58;100.00
19789;BME280;10054;59.332;18.244;2023-06-22T00:13:03;100541.75;;;19.58;100.00
19789;BME280;10054;59.332;18.244;2023-06-22T00:15:32;100541.25;;;19.59;100.00
19789;BME280;10054;59.332;18.244;2023-06-22T00:18:01;100547.44;;;19.59;100.00
19789;BME280;10054;59.332;18.244;2023-06-22T00:20:30;100546.11;;;19.59;100.00
19789;BME280;10054;59.332;18.244;2023-06-22T00:23:00;100547.10;;;19.58;100.00
19789;BME280;10054;59.332;18.244;2023-06-22T00:25:29;100540.07;;;19.57;100.00
19789;BME280;10054;59.332;18.244;2023-06-22T00:27:58;100538.73;;;19.57;100.00
19789;BME280;10054;59.332;18.244;2023-06-22T00:30:28;100534.38;;;19.56;100.00
19789;BME280;10054;59.332;18.244;2023-06-22T00:32:58;100531.36;;;19.55;100.00
19789;BME280;10054;59.332;18.244;2023-06-22T00:35:28;100534.03;;;19.55;100.00
19789;BME280;10054;59.332;18.244;2023-06-22T00:37:58;100539.73;;;19.56;100.00
19789;BME280;10054;59.332;18.244;2023-06-22T00:40:32;100546.08;;;19.55;100.00
19789;BME280;10054;59.332;18.244;2023-06-22T00:43:02;100536.70;;;19.55;100.00
19789;BME280;10054;59.332;18.244;2023-06-22T00:45:31;100537.20;;;19.55;100.00
19789;BME280;10054;59.332;18.244;2023-06-22T00:48:01;100532.35;;;19.54;100.00
19789;BME280;10054;59.332;18.244;2023-06-22T00:50:32;100533.34;;;19.53;100.00
19789;BME280;10054;59.332;18.244;2023-06-22T00:53:06;100529.83;;;19.53;100.00
19789;BME280;10054;59.332;18.244;2023-06-22T00:55:39;100535.68;;;19.52;100.00
19789;BME280;10054;59.332;18.244;2023-06-22T00:58:10;100526.94;;;19.50;100.00
19789;BME280;10054;59.332;18.244;2023-06-22T01:00:40;100527.59;;;19.48;100.00
19789;BME280;10054;59.332;18.244;2023-06-22T01:03:09;100532.25;;;19.46;100.00
19789;BME280;10054;59.332;18.244;2023-06-22T01:05:39;100528.89;;;19.44;100.00
19789;BME280;10054;59.332;18.244;2023-06-22T01:08:23;100527.55;;;19.44;100.00
19789;BME280;10054;59.332;18.244;2023-06-22T01:11:15;100530.39;;;19.43;100.00
19789;BME280;10054;59.332;18.244;2023-06-22T01:16:30;100526.19;;;19.40;100.00
19789;BME280;10054;59.332;18.244;2023-06-22T01:18:57;100527.03;;;19.41;100.00
19789;BME280;10054;59.332;18.244;2023-06-22T01:21:30;100524.35;;;19.41;100.00
19789;BME280;10054;59.332;18.244;2023-06-22T01:24:23;100522.17;;;19.40;100.00
19789;BME280;10054;59.332;18.244;2023-06-22T01:29:45;100525.50;;;19.38;100.00
19789;BME280;10054;59.332;18.244;2023-06-22T01:32:15;100526.50;;;19.37;100.00
19789;BME280;10054;59.332;18.244;2023-06-22T01:34:45;100526.99;;;19.36;100.00
19789;BME280;10054;59.332;18.244;2023-06-22T01:37:14;100524.31;;;19.36;100.00
19789;BME280;10054;59.332;18.244;2023-06-22T01:39:44;100513.77;;;19.35;100.00
19789;BME280;10054;59.332;18.244;2023-06-22T01:42:14;100518.44;;;19.33;100.00
19789;BME280;10054;59.332;18.244;2023-06-22T01:44:43;100513.58;;;19.32;100.00
19789;BME280;10054;59.332;18.244;2023-06-22T01:47:13;100512.44;;;19.31;100.00
19789;BME280;10054;59.332;18.244;2023-06-22T01:49:43;100512.09;;;19.30;100.00
19789;BME280;10054;59.332;18.244;2023-06-22T01:52:15;100512.74;;;19.28;100.00
19789;BME280;10054;59.332;18.244;2023-06-22T01:54:44;100515.08;;;19.27;100.00
19789;BME280;10054;59.332;18.244;2023-06-22T01:57:14;100511.22;;;19.25;100.00
19789;BME280;10054;59.332;18.244;2023-06-22T02:02:33;100506.52;;;19.23;100.00
19789;BME280;10054;59.332;18.244;2023-06-22T02:05:05;100508.70;;;19.24;100.00
19789;BME280;10054;59.332;18.244;2023-06-22T02:07:39;100519.73;;;19.25;100.00
19789;BME280;10054;59.332;18.244;2023-06-22T02:10:07;100519.73;;;19.25;100.00
19789;BME280;10054;59.332;18.244;2023-06-22T02:12:39;100522.26;;;19.26;100.00
19789;BME280;10054;59.332;18.244;2023-06-22T02:15:11;100516.06;;;19.26;100.00
19789;BME280;10054;59.332;18.244;2023-06-22T02:17:42;100513.39;;;19.26;100.00
19789;BME280;10054;59.332;18.244;2023-06-22T02:20:14;100511.71;;;19.25;100.00
19789;BME280;10054;59.332;18.244;2023-06-22T02:22:43;100517.06;;;19.25;100.00
19789;BME280;10054;59.332;18.244;2023-06-22T02:25:12;100516.88;;;19.22;100.00
19789;BME280;10054;59.332;18.244;2023-06-22T02:27:40;100521.23;;;19.23;100.00
19789;BME280;10054;59.332;18.244;2023-06-22T02:30:10;100518.89;;;19.24;100.00
19789;BME280;10054;59.332;18.244;2023-06-22T02:32:39;100521.95;;;19.29;100.00
19789;BME280;10054;59.332;18.244;2023-06-22T02:35:12;100518.59;;;19.31;100.00
19789;BME280;10054;59.332;18.244;2023-06-22T02:37:41;100520.95;;;19.34;100.00
19789;BME280;10054;59.332;18.244;2023-06-22T02:40:11;100520.65;;;19.37;100.00
19789;BME280;10054;59.332;18.244;2023-06-22T02:42:40;100515.30;;;19.37;100.00
19789;BME280;10054;59.332;18.244;2023-06-22T02:45:10;100513.80;;;19.39;100.00
19789;BME280;10054;59.332;18.244;2023-06-22T02:47:38;100512.16;;;19.42;100.00
19789;BME280;10054;59.332;18.244;2023-06-22T02:50:08;100516.20;;;19.46;100.00
19789;BME280;10054;59.332;18.244;2023-06-22T02:52:37;100510.54;;;19.49;100.00
19789;BME280;10054;59.332;18.244;2023-06-22T02:55:07;100517.98;;;19.55;100.00
19789;BME280;10054;59.332;18.244;2023-06-22T02:57:36;100514.27;;;19.74;100.00
19789;BME280;10054;59.332;18.244;2023-06-22T03:00:06;100517.17;;;19.85;100.00
19789;BME280;10054;59.332;18.244;2023-06-22T03:02:39;100511.50;;;19.88;100.00
19789;BME280;10054;59.332;18.244;2023-06-22T03:05:08;100515.02;;;19.88;100.00
19789;BME280;10054;59.332;18.244;2023-06-22T03:07:41;100517.86;;;19.87;100.00
19789;BME280;10054;59.332;18.244;2023-06-22T03:10:11;100514.16;;;19.84;100.00
19789;BME280;10054;59.332;18.244;2023-06-22T03:12:41;100523.34;;;19.81;100.00
19789;BME280;10054;59.332;18.244;2023-06-22T03:15:11;100523.00;;;19.80;100.00
19789;BME280;10054;59.332;18.244;2023-06-22T03:17:40;100533.21;;;19.81;100.00
19789;BME280;10054;59.332;18.244;2023-06-22T03:20:10;100528.85;;;19.80;100.00
19789;BME280;10054;59.332;18.244;2023-06-22T03:22:40;100530.03;;;19.81;100.00
19789;BME280;10054;59.332;18.244;2023-06-22T03:25:10;100525.86;;;19.83;100.00
19789;BME280;10054;59.332;18.244;2023-06-22T03:27:43;100530.56;;;19.85;100.00
19789;BME280;10054;59.332;18.244;2023-06-22T03:30:12;100530.24;;;19.88;100.00
19789;BME280;10054;59.332;18.244;2023-06-22T03:32:41;100533.13;;;19.94;100.00
19789;BME280;10054;59.332;18.244;2023-06-22T03:35:11;100535.02;;;20.02;100.00
19789;BME280;10054;59.332;18.244;2023-06-22T03:37:41;100526.47;;;20.07;100.00
19789;BME280;10054;59.332;18.244;2023-06-22T03:40:10;100523.64;;;20.08;100.00
19789;BME280;10054;59.332;18.244;2023-06-22T03:42:40;100521.30;;;20.09;100.00
19789;BME280;10054;59.332;18.244;2023-06-22T03:45:10;100525.31;;;20.09;100.00
19789;BME280;10054;59.332;18.244;2023-06-22T03:47:39;100519.30;;;20.11;100.00
19789;BME280;10054;59.332;18.244;2023-06-22T03:50:09;100515.30;;;20.15;100.00
19789;BME280;10054;59.332;18.244;2023-06-22T03:52:37;100515.70;;;20.28;100.00
19789;BME280;10054;59.332;18.244;2023-06-22T03:55:07;100523.20;;;20.55;100.00
19789;BME280;10054;59.332;18.244;2023-06-22T03:57:36;100517.56;;;20.70;100.00
19789;BME280;10054;59.332;18.244;2023-06-22T04:00:05;100514.55;;;20.85;100.00
19789;BME280;10054;59.332;18.244;2023-06-22T04:02:42;100512.89;;;20.96;100.00
19789;BME280;10054;59.332;18.244;2023-06-22T04:05:11;100516.41;;;21.01;100.00
19789;BME280;10054;59.332;18.244;2023-06-22T04:07:40;100516.58;;;20.99;100.00
19789;BME280;10054;59.332;18.244;2023-06-22T04:10:09;100519.92;;;20.93;100.00
19789;BME280;10054;59.332;18.244;2023-06-22T04:12:38;100515.55;;;20.84;100.00
19789;BME280;10054;59.332;18.244;2023-06-22T04:15:07;100523.61;;;20.76;100.00
19789;BME280;10054;59.332;18.244;2023-06-22T04:17:36;100516.88;;;20.68;100.00
19789;BME280;10054;59.332;18.244;2023-06-22T04:20:06;100516.36;;;20.60;100.00
19789;BME280;10054;59.332;18.244;2023-06-22T04:22:35;100518.17;;;20.52;100.00
19789;BME280;10054;59.332;18.244;2023-06-22T04:25:05;100522.34;;;20.46;100.00
19789;BME280;10054;59.332;18.244;2023-06-22T04:27:36;100515.63;;;20.42;100.00
19789;BME280;10054;59.332;18.244;2023-06-22T04:30:07;100519.32;;;20.45;100.00
19789;BME280;10054;59.332;18.244;2023-06-22T04:32:36;100516.49;;;20.51;100.00
19789;BME280;10054;59.332;18.244;2023-06-22T04:35:05;100513.48;;;20.54;100.00
19789;BME280;10054;59.332;18.244;2023-06-22T04:37:34;100512.66;;;20.57;100.00
19789;BME280;10054;59.332;18.244;2023-06-22T04:40:03;100515.69;;;20.62;100.00
19789;BME280;10054;59.332;18.244;2023-06-22T04:42:34;100518.90;;;20.70;100.00
19789;BME280;10054;59.332;18.244;2023-06-22T04:45:04;100518.41;;;20.91;100.00
19789;BME280;10054;59.332;18.244;2023-06-22T04:47:33;100517.48;;;21.24;100.00
19789;BME280;10054;59.332;18.244;2023-06-22T04:50:02;100521.13;;;21.56;100.00
19789;BME280;10054;59.332;18.244;2023-06-22T04:52:32;100522.45;;;21.72;100.00
19789;BME280;10054;59.332;18.244;2023-06-22T04:55:01;100526.47;;;21.80;100.00
19789;BME280;10054;59.332;18.244;2023-06-22T04:57:31;100521.92;;;21.89;100.00
19789;BME280;10054;59.332;18.244;2023-06-22T05:00:03;100527.23;;;22.21;100.00
19789;BME280;10054;59.332;18.244;2023-06-22T05:02:44;100532.12;;;22.53;98.62
19789;BME280;10054;59.332;18.244;2023-06-22T05:05:13;100520.77;;;22.70;95.69
19789;BME280;10054;59.332;18.244;2023-06-22T05:07:44;100526.42;;;22.87;94.34
19789;BME280;10054;59.332;18.244;2023-06-22T05:10:15;100526.41;;;23.10;93.15
19789;BME280;10054;59.332;18.244;2023-06-22T05:12:43;100527.33;;;23.21;91.17
19789;BME280;10054;59.332;18.244;2023-06-22T05:15:12;100522.88;;;23.32;89.60
19789;BME280;10054;59.332;18.244;2023-06-22T05:17:42;100525.75;;;23.31;87.84
19789;BME280;10054;59.332;18.244;2023-06-22T05:20:13;100523.05;;;23.31;87.48
19789;BME280;10054;59.332;18.244;2023-06-22T05:22:43;100524.48;;;23.41;87.33
19789;BME280;10054;59.332;18.244;2023-06-22T05:25:12;100520.08;;;23.44;86.47
19789;BME280;10054;59.332;18.244;2023-06-22T05:27:41;100519.24;;;23.44;84.67
19789;BME280;10054;59.332;18.244;2023-06-22T05:30:12;100522.15;;;23.61;83.12
19789;BME280;10054;59.332;18.244;2023-06-22T05:32:40;100515.88;;;23.79;83.17
19789;BME280;10054;59.332;18.244;2023-06-22T05:35:10;100518.41;;;23.96;82.13
19789;BME280;10054;59.332;18.244;2023-06-22T05:37:38;100521.48;;;24.07;80.28
19789;BME280;10054;59.332;18.244;2023-06-22T05:40:08;100522.45;;;24.10;77.40
19789;BME280;10054;59.332;18.244;2023-06-22T05:42:37;100518.58;;;24.28;78.97
19789;BME280;10054;59.332;18.244;2023-06-22T05:45:06;100521.55;;;24.33;75.30
19789;BME280;10054;59.332;18.244;2023-06-22T05:47:35;100523.68;;;24.37;77.30
19789;BME280;10054;59.332;18.244;2023-06-22T05:50:06;100523.84;;;24.61;77.08
19789;BME280;10054;59.332;18.244;2023-06-22T05:52:37;100527.99;;;24.78;69.61
19789;BME280;10054;59.332;18.244;2023-06-22T05:55:06;100528.48;;;24.67;74.64
19789;BME280;10054;59.332;18.244;2023-06-22T05:57:35;100531.48;;;24.47;75.83
19789;BME280;10054;59.332;18.244;2023-06-22T06:00:04;100533.42;;;24.23;75.85
19789;BME280;10054;59.332;18.244;2023-06-22T06:02:35;100531.80;;;24.18;76.67
19789;BME280;10054;59.332;18.244;2023-06-22T06:05:04;100520.80;;;24.39;76.52
19789;BME280;10054;59.332;18.244;2023-06-22T06:07:34;100526.36;;;24.63;75.11
19789;BME280;10054;59.332;18.244;2023-06-22T06:10:03;100533.33;;;24.82;73.35
19789;BME280;10054;59.332;18.244;2023-06-22T06:12:33;100526.25;;;24.96;72.13
19789;BME280;10054;59.332;18.244;2023-06-22T06:15:03;100527.23;;;24.84;69.96
19789;BME280;10054;59.332;18.244;2023-06-22T06:17:32;100533.25;;;24.76;71.28
19789;BME280;10054;59.332;18.244;2023-06-22T06:20:02;100532.05;;;24.53;70.44
19789;BME280;10054;59.332;18.244;2023-06-22T06:22:32;100525.84;;;24.23;71.01
19789;BME280;10054;59.332;18.244;2023-06-22T06:25:01;100531.73;;;23.93;73.01
19789;BME280;10054;59.332;18.244;2023-06-22T06:27:30;100534.16;;;23.73;73.75
19789;BME280;10054;59.332;18.244;2023-06-22T06:29:59;100537.70;;;23.51;74.85
19789;BME280;10054;59.332;18.244;2023-06-22T06:32:28;100538.91;;;23.25;75.77
19789;BME280;10054;59.332;18.244;2023-06-22T06:34:57;100548.44;;;23.09;76.75
19789;BME280;10054;59.332;18.244;2023-06-22T06:37:26;100545.89;;;22.93;77.12
19789;BME280;10054;59.332;18.244;2023-06-22T06:39:55;100543.45;;;22.79;78.56
19789;BME280;10054;59.332;18.244;2023-06-22T06:42:24;100543.66;;;22.66;79.54
19789;BME280;10054;59.332;18.244;2023-06-22T06:44:52;100550.94;;;22.53;80.80
19789;BME280;10054;59.332;18.244;2023-06-22T06:47:22;100546.28;;;22.43;81.95
19789;BME280;10054;59.332;18.244;2023-06-22T06:49:51;100549.50;;;22.34;83.12
19789;BME280;10054;59.332;18.244;2023-06-22T06:52:20;100550.75;;;22.23;83.90
19789;BME280;10054;59.332;18.244;2023-06-22T06:54:48;100547.42;;;22.09;85.06
19789;BME280;10054;59.332;18.244;2023-06-22T06:57:19;100548.76;;;22.01;85.86
19789;BME280;10054;59.332;18.244;2023-06-22T06:59:48;100549.77;;;21.96;86.65
19789;BME280;10054;59.332;18.244;2023-06-22T07:02:17;100551.45;;;21.97;87.06
19789;BME280;10054;59.332;18.244;2023-06-22T07:04:46;100549.63;;;22.02;87.08
19789;BME280;10054;59.332;18.244;2023-06-22T07:07:16;100553.30;;;22.09;87.21
19789;BME280;10054;59.332;18.244;2023-06-22T07:09:45;100558.98;;;22.22;87.39
19789;BME280;10054;59.332;18.244;2023-06-22T07:12:13;100558.41;;;22.35;87.37
19789;BME280;10054;59.332;18.244;2023-06-22T07:14:43;100550.24;;;22.59;86.18
19789;BME280;10054;59.332;18.244;2023-06-22T07:17:11;100549.95;;;22.89;83.22
19789;BME280;10054;59.332;18.244;2023-06-22T07:19:40;100553.31;;;23.10;82.56
19789;BME280;10054;59.332;18.244;2023-06-22T07:22:09;100550.42;;;23.15;81.21
19789;BME280;10054;59.332;18.244;2023-06-22T07:24:38;100552.39;;;23.21;81.49
19789;BME280;10054;59.332;18.244;2023-06-22T07:27:07;100563.08;;;23.34;81.11
19789;BME280;10054;59.332;18.244;2023-06-22T07:29:37;100564.17;;;23.43;79.63
19789;BME280;10054;59.332;18.244;2023-06-22T07:32:08;100564.59;;;23.59;78.69
19789;BME280;10054;59.332;18.244;2023-06-22T07:34:37;100561.82;;;23.67;78.47
19789;BME280;10054;59.332;18.244;2023-06-22T07:37:06;100566.08;;;23.62;76.75
19789;BME280;10054;59.332;18.244;2023-06-22T07:39:34;100577.82;;;23.42;76.35
19789;BME280;10054;59.332;18.244;2023-06-22T07:42:05;100571.05;;;23.23;77.89
19789;BME280;10054;59.332;18.244;2023-06-22T07:44:34;100566.29;;;23.06;78.57
19789;BME280;10054;59.332;18.244;2023-06-22T07:47:03;100572.13;;;22.91;79.57
19789;BME280;10054;59.332;18.244;2023-06-22T07:49:32;100571.52;;;22.81;80.25
19789;BME280;10054;59.332;18.244;2023-06-22T07:52:00;100569.31;;;22.76;80.75
19789;BME280;10054;59.332;18.244;2023-06-22T07:54:29;100568.34;;;22.69;80.48
19789;BME280;10054;59.332;18.244;2023-06-22T07:56:58;100572.24;;;22.62;80.94
19789;BME280;10054;59.332;18.244;2023-06-22T07:59:27;100563.20;;;22.55;80.99
19789;BME280;10054;59.332;18.244;2023-06-22T08:01:55;100564.91;;;22.48;81.17
19789;BME280;10054;59.332;18.244;2023-06-22T08:04:24;100568.11;;;22.44;81.46
19789;BME280;10054;59.332;18.244;2023-06-22T08:06:54;100564.79;;;22.34;81.25
19789;BME280;10054;59.332;18.244;2023-06-22T08:09:24;100565.35;;;22.25;81.46
19789;BME280;10054;59.332;18.244;2023-06-22T08:11:52;100564.36;;;22.22;81.61
19789;BME280;10054;59.332;18.244;2023-06-22T08:14:27;100564.71;;;22.15;81.60
19789;BME280;10054;59.332;18.244;2023-06-22T08:16:56;100563.36;;;22.15;81.91
19789;BME280;10054;59.332;18.244;2023-06-22T08:19:25;100562.86;;;22.15;81.95
19789;BME280;10054;59.332;18.244;2023-06-22T08:21:55;100558.64;;;22.21;81.22
19789;BME280;10054;59.332;18.244;2023-06-22T08:24:23;100559.09;;;22.28;81.81
19789;BME280;10054;59.332;18.244;2023-06-22T08:26:52;100553.00;;;22.43;81.71
19789;BME280;10054;59.332;18.244;2023-06-22T08:29:21;100560.16;;;22.58;80.93
19789;BME280;10054;59.332;18.244;2023-06-22T08:31:50;100563.55;;;22.91;80.72
19789;BME280;10054;59.332;18.244;2023-06-22T08:34:19;100554.73;;;23.24;78.35
19789;BME280;10054;59.332;18.244;2023-06-22T08:36:49;100566.72;;;23.41;77.36
19789;BME280;10054;59.332;18.244;2023-06-22T08:39:20;100550.20;;;23.44;76.64
19789;BME280;10054;59.332;18.244;2023-06-22T08:41:50;100559.81;;;23.42;75.59
19789;BME280;10054;59.332;18.244;2023-06-22T08:44:20;100557.69;;;23.34;75.46
19789;BME280;10054;59.332;18.244;2023-06-22T08:46:49;100554.19;;;23.29;75.69
19789;BME280;10054;59.332;18.244;2023-06-22T08:49:17;100555.44;;;23.41;76.23
19789;BME280;10054;59.332;18.244;2023-06-22T08:51:46;100551.99;;;23.51;75.58
19789;BME280;10054;59.332;18.244;2023-06-22T08:54:16;100554.61;;;23.64;74.97
19789;BME280;10054;59.332;18.244;2023-06-22T08:56:45;100560.62;;;23.70;74.52
19789;BME280;10054;59.332;18.244;2023-06-22T08:59:14;100557.96;;;23.66;74.19
19789;BME280;10054;59.332;18.244;2023-06-22T09:01:43;100554.61;;;23.64;73.86
19789;BME280;10054;59.332;18.244;2023-06-22T09:04:13;100547.73;;;23.61;73.11
19789;BME280;10054;59.332;18.244;2023-06-22T09:06:42;100554.32;;;23.58;73.31
19789;BME280;10054;59.332;18.244;2023-06-22T09:09:13;100547.23;;;23.62;73.67
19789;BME280;10054;59.332;18.244;2023-06-22T09:11:42;100547.98;;;23.85;72.49
19789;BME280;10054;59.332;18.244;2023-06-22T09:14:11;100542.80;;;24.13;71.55
19789;BME280;10054;59.332;18.244;2023-06-22T09:16:40;100545.16;;;24.45;70.96
19789;BME280;10054;59.332;18.244;2023-06-22T09:19:09;100546.23;;;24.76;69.68
19789;BME280;10054;59.332;18.244;2023-06-22T09:21:38;100543.36;;;24.88;67.83
19789;BME280;10054;59.332;18.244;2023-06-22T09:24:07;100545.08;;;25.00;67.77
19789;BME280;10054;59.332;18.244;2023-06-22T09:26:36;100534.30;;;25.11;66.75
19789;BME280;10054;59.332;18.244;2023-06-22T09:29:08;100535.52;;;25.19;65.63
19789;BME280;10054;59.332;18.244;2023-06-22T09:31:37;100530.70;;;25.25;65.17
19789;BME280;10054;59.332;18.244;2023-06-22T09:34:06;100530.98;;;25.37;64.43
19789;BME280;10054;59.332;18.244;2023-06-22T09:36:35;100530.34;;;25.35;64.15
19789;BME280;10054;59.332;18.244;2023-06-22T09:39:04;100533.81;;;25.29;64.50
19789;BME280;10054;59.332;18.244;2023-06-22T09:41:33;100535.48;;;25.30;64.41
19789;BME280;10054;59.332;18.244;2023-06-22T09:44:02;100530.20;;;25.43;64.51
19789;BME280;10054;59.332;18.244;2023-06-22T09:46:31;100526.39;;;25.59;64.11
19789;BME280;10054;59.332;18.244;2023-06-22T09:49:00;100518.09;;;25.71;62.31
19789;BME280;10054;59.332;18.244;2023-06-22T09:51:29;100523.48;;;25.81;61.97
19789;BME280;10054;59.332;18.244;2023-06-22T09:53:57;100523.12;;;25.91;60.60
19789;BME280;10054;59.332;18.244;2023-06-22T09:56:26;100520.74;;;25.92;59.75
19789;BME280;10054;59.332;18.244;2023-06-22T09:58:56;100518.48;;;26.02;60.01
19789;BME280;10054;59.332;18.244;2023-06-22T10:01:25;100515.55;;;26.14;59.32
19789;BME280;10054;59.332;18.244;2023-06-22T10:03:55;100520.27;;;26.23;58.34
19789;BME280;10054;59.332;18.244;2023-06-22T10:06:23;100512.13;;;26.16;58.54
19789;BME280;10054;59.332;18.244;2023-06-22T10:08:52;100521.23;;;26.26;57.75
19789;BME280;10054;59.332;18.244;2023-06-22T10:11:21;100519.79;;;26.30;57.73
19789;BME280;10054;59.332;18.244;2023-06-22T10:13:51;100511.34;;;26.40;57.99
19789;BME280;10054;59.332;18.244;2023-06-22T10:16:20;100512.63;;;26.50;57.74
19789;BME280;10054;59.332;18.244;2023-06-22T10:18:49;100517.44;;;26.55;56.90
19789;BME280;10054;59.332;18.244;2023-06-22T10:21:18;100513.61;;;26.60;56.75
19789;BME280;10054;59.332;18.244;2023-06-22T10:23:46;100521.77;;;26.73;56.56
19789;BME280;10054;59.332;18.244;2023-06-22T10:26:15;100516.97;;;26.82;55.22
19789;BME280;10054;59.332;18.244;2023-06-22T10:28:44;100515.08;;;26.76;54.77
19789;BME280;10054;59.332;18.244;2023-06-22T10:31:12;100519.98;;;26.76;54.74
19789;BME280;10054;59.332;18.244;2023-06-22T10:33:41;100519.47;;;26.70;54.14
19789;BME280;10054;59.332;18.244;2023-06-22T10:36:11;100515.00;;;26.73;54.33
19789;BME280;10054;59.332;18.244;2023-06-22T10:38:40;100514.48;;;26.74;52.59
19789;BME280;10054;59.332;18.244;2023-06-22T10:41:09;100515.72;;;26.78;53.63
19789;BME280;10054;59.332;18.244;2023-06-22T10:43:38;100508.02;;;26.81;52.96
19789;BME280;10054;59.332;18.244;2023-06-22T10:46:07;100515.83;;;26.80;51.15
19789;BME280;10054;59.332;18.244;2023-06-22T10:48:36;100508.95;;;26.78;51.50
19789;BME280;10054;59.332;18.244;2023-06-22T10:51:05;100508.97;;;26.84;52.04
19789;BME280;10054;59.332;18.244;2023-06-22T10:53:33;100515.34;;;26.94;52.18
19789;BME280;10054;59.332;18.244;2023-06-22T10:56:02;100512.25;;;26.97;52.28
19789;BME280;10054;59.332;18.244;2023-06-22T10:58:31;100508.83;;;27.06;52.01
19789;BME280;10054;59.332;18.244;2023-06-22T11:01:00;100504.67;;;27.10;51.26
19789;BME280;10054;59.332;18.244;2023-06-22T11:03:30;100506.45;;;27.13;51.11
19789;BME280;10054;59.332;18.244;2023-06-22T11:05:59;100503.95;;;27.19;51.04
19789;BME280;10054;59.332;18.244;2023-06-22T11:08:28;100503.32;;;27.10;49.51
19789;BME280;10054;59.332;18.244;2023-06-22T11:10:57;100501.56;;;27.20;50.21
19789;BME280;10054;59.332;18.244;2023-06-22T11:13:25;100503.23;;;27.27;49.81
19789;BME280;10054;59.332;18.244;2023-06-22T11:15:55;100507.52;;;27.32;49.88
19789;BME280;10054;59.332;18.244;2023-06-22T11:18:24;100498.34;;;27.40;49.72
19789;BME280;10054;59.332;18.244;2023-06-22T11:20:52;100492.51;;;27.43;49.08
19789;BME280;10054;59.332;18.244;2023-06-22T11:23:21;100500.64;;;27.43;49.35
19789;BME280;10054;59.332;18.244;2023-06-22T11:25:50;100499.17;;;27.40;49.18
19789;BME280;10054;59.332;18.244;2023-06-22T11:28:19;100486.88;;;27.38;49.17
19789;BME280;10054;59.332;18.244;2023-06-22T11:30:48;100496.05;;;27.37;48.96
19789;BME280;10054;59.332;18.244;2023-06-22T11:33:17;100498.44;;;27.29;48.40
19789;BME280;10054;59.332;18.244;2023-06-22T11:35:46;100501.25;;;27.25;47.51
19789;BME280;10054;59.332;18.244;2023-06-22T11:38:15;100495.95;;;27.28;47.91
19789;BME280;10054;59.332;18.244;2023-06-22T11:40:44;100500.00;;;27.21;48.13
19789;BME280;10054;59.332;18.244;2023-06-22T11:43:13;100499.06;;;27.25;48.50
19789;BME280;10054;59.332;18.244;2023-06-22T11:45:42;100499.48;;;27.28;48.39
19789;BME280;10054;59.332;18.244;2023-06-22T11:48:11;100495.42;;;27.28;47.65
19789;BME280;10054;59.332;18.244;2023-06-22T11:50:40;100490.73;;;27.26;46.93
19789;BME280;10054;59.332;18.244;2023-06-22T11:53:11;100486.98;;;27.27;47.20
19789;BME280;10054;59.332;18.244;2023-06-22T11:55:41;100483.34;;;27.37;47.03
19789;BME280;10054;59.332;18.244;2023-06-22T11:58:10;100488.34;;;27.47;46.87
19789;BME280;10054;59.332;18.244;2023-06-22T12:00:39;100488.61;;;27.55;47.06
19789;BME280;10054;59.332;18.244;2023-06-22T12:03:09;100486.22;;;27.56;46.77
19789;BME280;10054;59.332;18.244;2023-06-22T12:05:39;100489.69;;;27.47;46.96
19789;BME280;10054;59.332;18.244;2023-06-22T12:08:07;100494.48;;;27.38;46.63
19789;BME280;10054;59.332;18.244;2023-06-22T12:10:36;100498.76;;;27.30;46.81
19789;BME280;10054;59.332;18.244;2023-06-22T12:13:05;100501.67;;;27.29;46.83
19789;BME280;10054;59.332;18.244;2023-06-22T12:15:34;100499.91;;;27.32;46.83
19789;BME280;10054;59.332;18.244;2023-06-22T12:18:03;100500.94;;;27.24;45.94
19789;BME280;10054;59.332;18.244;2023-06-22T12:20:31;100493.45;;;27.33;46.79
19789;BME280;10054;59.332;18.244;2023-06-22T12:23:01;100492.82;;;27.37;46.62
19789;BME280;10054;59.332;18.244;2023-06-22T12:25:29;100494.07;;;27.41;46.76
19789;BME280;10054;59.332;18.244;2023-06-22T12:27:58;100488.97;;;27.42;46.66
19789;BME280;10054;59.332;18.244;2023-06-22T12:30:27;100492.16;;;27.48;46.80
19789;BME280;10054;59.332;18.244;2023-06-22T12:32:55;100493.62;;;27.51;46.67
19789;BME280;10054;59.332;18.244;2023-06-22T12:35:24;100495.28;;;27.52;46.97
19789;BME280;10054;59.332;18.244;2023-06-22T12:37:53;100498.00;;;27.52;46.98
19789;BME280;10054;59.332;18.244;2023-06-22T12:40:22;100487.16;;;27.52;47.20
19789;BME280;10054;59.332;18.244;2023-06-22T12:42:51;100487.05;;;27.49;46.82
19789;BME280;10054;59.332;18.244;2023-06-22T12:45:20;100492.05;;;27.53;47.30
19789;BME280;10054;59.332;18.244;2023-06-22T12:47:49;100495.91;;;27.54;47.01
19789;BME280;10054;59.332;18.244;2023-06-22T12:50:18;100495.70;;;27.49;47.24
19789;BME280;10054;59.332;18.244;2023-06-22T12:52:47;100490.53;;;27.41;47.20
19789;BME280;10054;59.332;18.244;2023-06-22T12:55:16;100487.81;;;27.41;47.56